createdAt,value
2023-04-20T00:01:21.409Z,20.55
2023-04-20T00:03:49.510Z,20.51
2023-04-20T00:06:18.201Z,20.58
2023-04-20T00:08:47.516Z,20.53
2023-04-20T00:11:15.787Z,20.51
2023-04-20T00:13:43.484Z,20.52
2023-04-20T00:16:11.221Z,20.57
2023-04-20T00:18:39.151Z,20.64
2023-04-20T00:21:06.980Z,20.65
2023-04-20T00:23:34.820Z,20.64
2023-04-20T00:26:02.535Z,20.54
2023-04-20T00:28:30.406Z,20.65
2023-04-20T00:30:59.844Z,20.61
2023-04-20T00:33:27.561Z,20.50
2023-04-20T00:35:56.783Z,20.57
2023-04-20T00:38:24.720Z,20.29
2023-04-20T00:40:54.399Z,20.61
2023-04-20T00:43:23.242Z,20.58
2023-04-20T00:45:55.014Z,20.03
2023-04-20T00:48:23.736Z,20.52
2023-04-20T00:50:54.149Z,20.57
2023-04-20T00:53:28.532Z,20.56
2023-04-20T00:55:57.109Z,20.55
2023-04-20T00:58:25.129Z,20.35
2023-04-20T01:00:52.884Z,20.53
2023-04-20T01:03:21.084Z,20.49
2023-04-20T01:05:51.891Z,20.52
2023-04-20T01:08:26.655Z,20.28
2023-04-20T01:10:56.502Z,20.48
2023-04-20T01:13:24.807Z,20.53
2023-04-20T01:15:52.559Z,20.16
2023-04-20T01:18:20.246Z,20.26
2023-04-20T01:20:51.918Z,20.19
2023-04-20T01:23:22.358Z,19.71
2023-04-20T01:25:50.214Z,20.47
2023-04-20T01:28:18.174Z,20.48
2023-04-20T01:30:46.395Z,20.47
2023-04-20T01:33:14.254Z,20.20
2023-04-20T01:35:51.617Z,20.24
2023-04-20T01:38:24.213Z,19.86
2023-04-20T01:41:01.058Z,20.40
2023-04-20T01:43:35.606Z,20.43
2023-04-20T01:46:08.966Z,20.46
2023-04-20T01:48:40.121Z,20.20
2023-04-20T01:51:09.819Z,20.28
2023-04-20T01:53:37.535Z,20.34
2023-04-20T01:56:05.577Z,20.43
2023-04-20T01:58:33.621Z,20.24
2023-04-20T02:01:02.897Z,20.33
2023-04-20T02:03:31.130Z,20.15
2023-04-20T02:05:59.337Z,20.09
2023-04-20T02:08:30.851Z,19.53
2023-04-20T02:10:58.845Z,20.34
2023-04-20T02:13:27.234Z,20.46
2023-04-20T02:15:55.808Z,20.32
2023-04-20T02:18:24.600Z,20.47
2023-04-20T02:20:52.788Z,20.02
2023-04-20T02:23:20.566Z,20.22
2023-04-20T02:25:48.308Z,20.42
2023-04-20T02:28:16.111Z,20.29
2023-04-20T02:30:44.323Z,20.30
2023-04-20T02:33:12.923Z,20.44
2023-04-20T02:35:40.642Z,19.86
2023-04-20T02:38:08.615Z,20.00
2023-04-20T02:40:39.513Z,19.73
2023-04-20T02:43:07.362Z,20.02
2023-04-20T02:45:35.931Z,20.39
2023-04-20T02:48:04.101Z,19.87
2023-04-20T02:50:35.329Z,20.26
2023-04-20T02:53:09.877Z,19.49
2023-04-20T02:55:38.217Z,19.59
2023-04-20T02:58:17.839Z,20.03
2023-04-20T03:01:05.860Z,19.27
2023-04-20T03:03:34.623Z,20.33
2023-04-20T03:06:02.479Z,19.96
2023-04-20T03:08:30.405Z,19.87
2023-04-20T03:11:03.072Z,20.23
2023-04-20T03:13:30.907Z,20.31
2023-04-20T03:16:02.373Z,19.79
2023-04-20T03:18:37.545Z,19.93
2023-04-20T03:21:05.604Z,20.31
2023-04-20T03:23:33.632Z,20.30
2023-04-20T03:26:03.239Z,20.18
2023-04-20T03:28:44.182Z,20.30
2023-04-20T03:31:15.565Z,19.99
2023-04-20T03:33:45.916Z,19.92
2023-04-20T03:36:13.733Z,20.21
2023-04-20T03:38:42.376Z,19.91
2023-04-20T03:41:11.631Z,20.06
2023-04-20T03:43:39.751Z,19.89
2023-04-20T03:46:07.920Z,19.99
2023-04-20T03:48:36.302Z,20.27
2023-04-20T03:51:04.632Z,19.73
2023-04-20T03:53:32.463Z,20.20
2023-04-20T03:56:02.620Z,20.29
2023-04-20T03:58:31.249Z,19.96
2023-04-20T04:01:19.305Z,19.80
2023-04-20T04:03:49.480Z,19.99
2023-04-20T04:06:18.379Z,20.27
2023-04-20T04:08:46.242Z,20.26
2023-04-20T04:11:14.343Z,20.27
2023-04-20T04:13:42.265Z,20.16
2023-04-20T04:16:11.788Z,20.28
2023-04-20T04:18:44.046Z,20.29
2023-04-20T04:21:13.455Z,20.31
2023-04-20T04:23:45.266Z,20.09
2023-04-20T04:26:48.850Z,20.30
2023-04-20T04:29:17.759Z,20.31
2023-04-20T04:31:45.776Z,20.24
2023-04-20T04:34:19.073Z,20.18
2023-04-20T04:36:50.872Z,20.15
2023-04-20T04:39:24.152Z,20.20
2023-04-20T04:42:04.970Z,19.90
2023-04-20T04:44:41.853Z,19.95
2023-04-20T04:47:14.612Z,20.19
2023-04-20T04:49:42.733Z,20.18
2023-04-20T04:52:11.555Z,20.28
2023-04-20T04:54:40.692Z,19.86
2023-04-20T04:57:08.599Z,19.78
2023-04-20T04:59:36.278Z,20.15
2023-04-20T05:02:05.664Z,20.09
2023-04-20T05:04:33.732Z,20.10
2023-04-20T05:07:01.799Z,20.05
2023-04-20T05:09:33.693Z,20.21
2023-04-20T05:12:01.737Z,20.01
2023-04-20T05:14:31.423Z,20.29
2023-04-20T05:17:03.609Z,20.30
2023-04-20T05:19:32.352Z,20.21
2023-04-20T05:22:01.739Z,20.27
2023-04-20T05:24:29.614Z,20.27
2023-04-20T05:26:57.428Z,20.12
2023-04-20T05:29:28.701Z,20.29
2023-04-20T05:31:59.079Z,20.42
2023-04-20T05:34:27.146Z,20.03
2023-04-20T05:36:55.158Z,19.70
2023-04-20T05:39:24.623Z,20.21
2023-04-20T05:41:52.737Z,20.05
2023-04-20T05:44:20.845Z,19.41
2023-04-20T05:46:48.704Z,20.40
2023-04-20T05:49:17.031Z,20.56
2023-04-20T05:51:45.559Z,20.46
2023-04-20T05:54:13.550Z,20.51
2023-04-20T05:56:41.489Z,20.55
2023-04-20T05:59:09.571Z,20.11
2023-04-20T06:01:37.416Z,20.35
2023-04-20T06:04:05.552Z,20.32
2023-04-20T06:06:33.509Z,20.24
2023-04-20T06:09:03.912Z,20.01
2023-04-20T06:11:31.815Z,20.43
2023-04-20T06:14:02.736Z,20.01
2023-04-20T06:16:30.664Z,20.13
2023-04-20T06:18:58.778Z,20.33
2023-04-20T06:21:27.371Z,19.29
2023-04-20T06:23:55.685Z,20.46
2023-04-20T06:26:28.417Z,20.30
2023-04-20T06:28:56.905Z,20.26
2023-04-20T06:31:24.760Z,20.01
2023-04-20T06:33:52.582Z,20.28
2023-04-20T06:36:20.314Z,20.31
2023-04-20T06:38:48.188Z,20.32
2023-04-20T06:41:16.566Z,20.29
2023-04-20T06:43:46.161Z,20.29
2023-04-20T06:46:14.076Z,20.49
2023-04-20T06:48:41.900Z,20.48
2023-04-20T06:51:09.817Z,20.23
2023-04-20T06:53:37.512Z,20.51
2023-04-20T06:56:05.802Z,20.20
2023-04-20T06:58:33.557Z,20.37
2023-04-20T07:01:02.988Z,20.01
2023-04-20T07:03:31.489Z,20.50
2023-04-20T07:05:59.598Z,20.38
2023-04-20T07:08:27.476Z,20.26
2023-04-20T07:10:55.206Z,20.44
2023-04-20T07:13:23.303Z,20.28
2023-04-20T07:15:51.696Z,20.54
2023-04-20T07:18:21.018Z,20.55
2023-04-20T07:20:48.770Z,20.40
2023-04-20T07:23:16.597Z,20.20
2023-04-20T07:25:45.589Z,20.24
2023-04-20T07:28:13.665Z,20.09
2023-04-20T07:30:41.561Z,20.13
2023-04-20T07:33:11.473Z,20.37
2023-04-20T07:35:39.913Z,20.32
2023-04-20T07:38:07.730Z,20.33
2023-04-20T07:40:35.603Z,20.35
2023-04-20T07:43:03.301Z,20.55
2023-04-20T07:45:31.574Z,20.62
2023-04-20T07:48:05.701Z,20.64
2023-04-20T07:50:33.592Z,20.67
2023-04-20T07:53:01.240Z,20.53
2023-04-20T07:55:33.129Z,20.68
2023-04-20T07:58:01.076Z,20.38
2023-04-20T08:00:29.000Z,20.65
2023-04-20T08:02:57.386Z,20.57
2023-04-20T08:05:27.500Z,20.74
2023-04-20T08:07:55.435Z,20.54
2023-04-20T08:10:23.270Z,20.66
2023-04-20T08:12:52.704Z,20.80
2023-04-20T08:15:21.089Z,20.39
2023-04-20T08:17:49.094Z,20.55
2023-04-20T08:20:16.930Z,20.82
2023-04-20T08:22:44.707Z,20.73
2023-04-20T08:25:12.480Z,20.69
2023-04-20T08:27:40.231Z,20.72
2023-04-20T08:30:09.074Z,20.72
2023-04-20T08:32:38.115Z,20.98
2023-04-20T08:35:06.015Z,20.94
2023-04-20T08:37:34.395Z,20.59
2023-04-20T08:40:02.405Z,20.99
2023-04-20T08:42:31.818Z,20.52
2023-04-20T08:45:00.085Z,20.55
2023-04-20T08:47:29.213Z,20.61
2023-04-20T08:49:58.929Z,21.00
2023-04-20T08:52:27.230Z,20.51
2023-04-20T08:54:57.443Z,20.89
2023-04-20T08:57:26.493Z,20.91
2023-04-20T08:59:54.707Z,20.76
2023-04-20T09:02:23.015Z,21.04
2023-04-20T09:05:02.465Z,20.99
2023-04-20T09:10:15.183Z,21.03
2023-04-20T09:12:43.373Z,21.05
2023-04-20T09:15:11.508Z,20.73
2023-04-20T09:17:41.020Z,20.91
2023-04-20T09:20:11.557Z,21.12
2023-04-20T09:22:41.583Z,20.83
2023-04-20T09:25:19.445Z,21.15
2023-04-20T09:28:02.384Z,21.21
2023-04-20T09:30:43.479Z,21.24
2023-04-20T09:33:13.496Z,20.99
2023-04-20T09:35:42.748Z,21.30
2023-04-20T09:38:17.336Z,21.32
2023-04-20T09:40:45.342Z,21.35
2023-04-20T09:43:25.028Z,20.91
2023-04-20T09:45:52.852Z,21.13
2023-04-20T09:48:21.998Z,21.35
2023-04-20T09:50:51.427Z,21.43
2023-04-20T09:53:20.434Z,21.33
2023-04-20T09:55:50.495Z,21.43
2023-04-20T09:58:20.729Z,21.44
2023-04-20T10:00:49.410Z,21.02
2023-04-20T10:03:22.301Z,21.43
2023-04-20T10:05:52.348Z,21.17
2023-04-20T10:08:22.266Z,21.39
2023-04-20T10:10:51.658Z,20.92
2023-04-20T10:13:22.085Z,21.24
2023-04-20T10:15:49.922Z,21.44
2023-04-20T10:18:23.791Z,21.47
2023-04-20T10:21:03.731Z,21.27
2023-04-20T10:23:34.145Z,20.98
2023-04-20T10:26:04.123Z,20.49
2023-04-20T10:28:40.868Z,21.00
2023-04-20T10:31:13.476Z,20.80
2023-04-20T10:33:58.676Z,21.42
2023-04-20T10:36:36.999Z,20.79
2023-04-20T10:39:19.777Z,20.95
2023-04-20T10:42:03.961Z,21.40
2023-04-20T10:44:33.250Z,21.64
2023-04-20T10:47:01.518Z,21.36
2023-04-20T10:49:31.256Z,21.47
2023-04-20T10:51:59.105Z,21.53
2023-04-20T10:54:27.242Z,21.55
2023-04-20T10:56:55.027Z,21.53
2023-04-20T10:59:24.957Z,21.74
2023-04-20T11:01:54.159Z,21.34
2023-04-20T11:04:32.939Z,21.78
2023-04-20T11:07:09.582Z,21.35
2023-04-20T11:09:40.699Z,21.80
2023-04-20T11:12:12.041Z,21.55
2023-04-20T11:15:00.777Z,21.64
2023-04-20T11:17:36.085Z,21.83
2023-04-20T11:20:14.021Z,21.77
2023-04-20T11:22:43.200Z,21.62
2023-04-20T11:25:13.606Z,21.78
2023-04-20T11:27:42.400Z,21.87
2023-04-20T11:30:10.556Z,21.69
2023-04-20T11:32:39.263Z,21.90
2023-04-20T11:35:11.017Z,21.77
2023-04-20T11:37:51.684Z,21.83
2023-04-20T11:40:20.474Z,21.78
2023-04-20T11:42:48.195Z,21.85
2023-04-20T11:45:16.213Z,21.74
2023-04-20T11:47:45.824Z,21.98
2023-04-20T11:50:15.053Z,21.99
2023-04-20T11:52:42.872Z,21.42
2023-04-20T11:55:11.577Z,21.61
2023-04-20T11:57:39.529Z,22.01
2023-04-20T12:00:08.231Z,21.89
2023-04-20T12:02:41.996Z,21.55
2023-04-20T12:07:38.234Z,21.54
2023-04-20T12:10:08.087Z,21.78
2023-04-20T12:12:37.374Z,21.46
2023-04-20T12:15:06.048Z,21.96
2023-04-20T12:17:33.988Z,21.78
2023-04-20T12:20:08.966Z,21.79
2023-04-20T12:22:36.709Z,21.88
2023-04-20T12:25:05.516Z,22.12
2023-04-20T12:27:33.419Z,22.13
2023-04-20T12:30:01.371Z,21.93
2023-04-20T12:32:30.914Z,22.14
2023-04-20T12:34:59.351Z,22.14
2023-04-20T12:37:27.429Z,22.08
2023-04-20T12:39:55.112Z,22.03
2023-04-20T12:42:22.824Z,22.10
2023-04-20T12:44:54.391Z,22.13
2023-04-20T12:47:22.517Z,21.98
2023-04-20T12:49:50.558Z,22.13
2023-04-20T12:52:18.876Z,21.97
2023-04-20T12:54:46.640Z,22.08
2023-04-20T12:57:14.613Z,22.06
2023-04-20T12:59:43.093Z,21.61
2023-04-20T13:02:11.549Z,22.00
2023-04-20T13:04:39.436Z,21.95
2023-04-20T13:07:07.490Z,22.00
2023-04-20T13:09:35.349Z,21.89
2023-04-20T13:12:03.837Z,21.84
2023-04-20T13:14:32.434Z,22.03
2023-04-20T13:17:02.160Z,21.82
2023-04-20T13:19:31.126Z,21.96
2023-04-20T13:21:59.326Z,22.03
2023-04-20T13:24:27.221Z,22.05
2023-04-20T13:26:56.882Z,22.04
2023-04-20T13:29:27.797Z,22.04
2023-04-20T13:31:55.606Z,21.79
2023-04-20T13:34:23.450Z,22.00
2023-04-20T13:36:51.891Z,22.00
2023-04-20T13:39:20.910Z,21.95
2023-04-20T13:41:52.139Z,21.78
2023-04-20T13:44:20.280Z,21.91
2023-04-20T13:46:48.552Z,21.69
2023-04-20T13:49:17.118Z,21.70
2023-04-20T13:51:44.943Z,21.89
2023-04-20T13:54:12.616Z,21.48
2023-04-20T13:56:40.350Z,21.68
2023-04-20T13:59:08.119Z,21.62
2023-04-20T14:01:36.154Z,21.72
2023-04-20T14:04:05.015Z,21.91
2023-04-20T14:06:32.982Z,21.57
2023-04-20T14:09:01.637Z,21.88
2023-04-20T14:11:29.767Z,21.87
2023-04-20T14:13:57.713Z,21.50
2023-04-20T14:16:25.932Z,21.94
2023-04-20T14:18:53.885Z,21.79
2023-04-20T14:21:22.436Z,21.97
2023-04-20T14:23:53.763Z,21.64
2023-04-20T14:26:21.701Z,22.01
2023-04-20T14:28:49.507Z,21.87
2023-04-20T14:31:17.343Z,21.90
2023-04-20T14:33:45.109Z,21.85
2023-04-20T14:36:13.413Z,21.61
2023-04-20T14:38:41.210Z,21.80
2023-04-20T14:41:08.867Z,21.97
2023-04-20T14:43:37.501Z,21.54
2023-04-20T14:46:06.244Z,21.72
2023-04-20T14:48:38.229Z,21.82
2023-04-20T14:51:06.482Z,21.87
2023-04-20T14:53:34.217Z,21.79
2023-04-20T14:56:02.960Z,21.87
2023-04-20T14:58:31.793Z,21.83
2023-04-20T15:00:59.403Z,21.68
2023-04-20T15:03:27.626Z,21.87
2023-04-20T15:06:01.760Z,21.76
2023-04-20T15:08:29.471Z,21.68
2023-04-20T15:10:57.500Z,21.81
2023-04-20T15:13:27.204Z,21.70
2023-04-20T15:18:24.013Z,21.41
2023-04-20T15:20:52.841Z,21.76
2023-04-20T15:23:20.909Z,21.60
2023-04-20T15:25:48.727Z,21.60
2023-04-20T15:28:16.814Z,21.64
2023-04-20T15:30:45.430Z,21.70
2023-04-20T15:33:13.230Z,21.57
2023-04-20T15:35:41.441Z,21.71
2023-04-20T15:38:09.616Z,21.80
2023-04-20T15:40:38.893Z,21.44
2023-04-20T15:43:06.964Z,21.78
2023-04-20T15:45:35.063Z,21.75
2023-04-20T15:48:03.255Z,21.63
2023-04-20T15:50:31.354Z,21.70
2023-04-20T15:52:59.087Z,20.73
2023-04-20T15:55:27.386Z,21.52
2023-04-20T15:57:58.271Z,21.63
2023-04-20T16:00:27.338Z,21.29
2023-04-20T16:02:55.463Z,21.57
2023-04-20T16:05:42.201Z,21.31
2023-04-20T16:08:28.607Z,21.35
2023-04-20T16:11:14.815Z,21.42
2023-04-20T16:13:42.833Z,21.56
2023-04-20T16:16:10.746Z,20.81
2023-04-20T16:18:38.948Z,21.35
2023-04-20T16:21:06.830Z,21.58
2023-04-20T16:23:34.697Z,20.95
2023-04-20T16:26:05.454Z,21.11
2023-04-20T16:28:33.220Z,21.52
2023-04-20T16:31:01.206Z,21.41
2023-04-20T16:33:30.514Z,21.41
2023-04-20T16:35:58.417Z,21.45
2023-04-20T16:38:26.366Z,21.20
2023-04-20T16:40:54.374Z,21.15
2023-04-20T16:43:22.227Z,21.30
2023-04-20T16:45:50.155Z,21.17
2023-04-20T16:48:18.070Z,21.36
2023-04-20T16:50:47.131Z,21.17
2023-04-20T16:53:15.211Z,21.21
2023-04-20T16:55:43.280Z,21.20
2023-04-20T16:58:11.229Z,21.39
2023-04-20T17:00:39.167Z,21.38
2023-04-20T17:03:10.468Z,21.38
2023-04-20T17:05:41.672Z,21.11
2023-04-20T17:08:09.921Z,21.17
2023-04-20T17:10:38.618Z,21.29
2023-04-20T17:13:06.590Z,21.63
2023-04-20T17:15:34.481Z,21.61
2023-04-20T17:18:02.532Z,21.63
2023-04-20T17:20:30.547Z,21.86
2023-04-20T17:22:58.272Z,21.64
2023-04-20T17:25:26.346Z,21.48
2023-04-20T17:27:54.173Z,21.72
2023-04-20T17:30:22.961Z,21.64
2023-04-20T17:32:50.924Z,21.49
2023-04-20T17:35:18.868Z,21.36
2023-04-20T17:37:46.599Z,21.71
2023-04-20T17:40:14.510Z,21.72
2023-04-20T17:42:42.248Z,21.38
2023-04-20T17:45:10.473Z,21.30
2023-04-20T17:47:38.660Z,21.66
2023-04-20T17:50:07.134Z,21.76
2023-04-20T17:52:35.958Z,21.75
2023-04-20T17:55:06.578Z,21.87
2023-04-20T17:57:34.815Z,21.54
2023-04-20T18:00:03.911Z,21.41
2023-04-20T18:02:40.630Z,21.45
2023-04-20T18:05:08.970Z,21.76
2023-04-20T18:07:36.806Z,21.64
2023-04-20T18:10:05.059Z,21.74
2023-04-20T18:12:33.784Z,21.94
2023-04-20T18:15:07.641Z,21.80
2023-04-20T18:17:36.804Z,21.89
2023-04-20T18:20:09.492Z,22.11
2023-04-20T18:22:38.628Z,22.06
2023-04-20T18:25:06.670Z,21.98
2023-04-20T18:27:34.896Z,22.03
2023-04-20T18:30:02.919Z,21.93
2023-04-20T18:32:33.361Z,22.12
2023-04-20T18:35:01.194Z,21.91
2023-04-20T18:37:28.930Z,22.01
2023-04-20T18:39:58.229Z,21.87
2023-04-20T18:42:28.297Z,21.98
2023-04-20T18:44:56.294Z,21.69
2023-04-20T18:47:27.378Z,21.83
2023-04-20T18:49:55.121Z,21.68
2023-04-20T18:52:23.485Z,21.69
2023-04-20T18:54:52.125Z,21.68
2023-04-20T18:57:24.461Z,21.55
2023-04-20T18:59:53.569Z,21.48
2023-04-20T19:02:21.997Z,21.64
2023-04-20T19:04:51.014Z,21.54
2023-04-20T19:07:19.278Z,21.57
2023-04-20T19:09:48.747Z,21.62
2023-04-20T19:12:16.612Z,21.15
2023-04-20T19:14:45.403Z,21.50
2023-04-20T19:17:14.380Z,21.45
2023-04-20T19:19:41.993Z,21.54
2023-04-20T19:22:10.108Z,21.57
2023-04-20T19:24:38.076Z,21.26
2023-04-20T19:27:06.018Z,21.56
2023-04-20T19:29:35.535Z,21.43
2023-04-20T19:32:03.924Z,21.30
2023-04-20T19:34:34.212Z,21.32
2023-04-20T19:37:02.160Z,21.06
2023-04-20T19:39:30.911Z,21.07
2023-04-20T19:41:58.773Z,21.37
2023-04-20T19:44:28.257Z,21.40
2023-04-20T19:46:56.170Z,21.39
2023-04-20T19:49:23.980Z,21.19
2023-04-20T19:51:51.765Z,21.43
2023-04-20T19:54:19.909Z,20.87
2023-04-20T19:56:47.683Z,21.42
2023-04-20T19:59:15.987Z,21.45
2023-04-20T20:01:44.129Z,21.42
2023-04-20T20:04:12.124Z,21.35
2023-04-20T20:06:40.540Z,21.19
2023-04-20T20:09:08.701Z,20.91
2023-04-20T20:11:36.562Z,21.22
2023-04-20T20:14:05.003Z,20.97
2023-04-20T20:16:32.958Z,21.21
2023-04-20T20:19:00.807Z,21.23
2023-04-20T20:21:28.811Z,21.30
2023-04-20T20:23:59.521Z,21.07
2023-04-20T20:26:27.746Z,21.30
2023-04-20T20:28:55.552Z,21.04
2023-04-20T20:31:24.653Z,21.42
2023-04-20T20:33:52.761Z,21.23
2023-04-20T20:36:21.696Z,21.43
2023-04-20T20:38:51.115Z,21.41
2023-04-20T20:41:22.142Z,21.04
2023-04-20T20:43:50.547Z,21.01
2023-04-20T20:46:20.517Z,21.06
2023-04-20T20:48:48.331Z,21.41
2023-04-20T20:51:17.034Z,21.42
2023-04-20T20:53:46.477Z,21.25
2023-04-20T20:56:14.294Z,21.25
2023-04-20T20:58:42.235Z,21.17
2023-04-20T21:01:10.552Z,21.33
2023-04-20T21:03:39.766Z,21.33
2023-04-20T21:06:08.138Z,21.23
2023-04-20T21:08:36.153Z,21.34
2023-04-20T21:11:04.345Z,21.32
2023-04-20T21:13:31.990Z,20.86
2023-04-20T21:15:59.695Z,21.21
2023-04-20T21:18:27.432Z,21.24
2023-04-20T21:20:58.198Z,21.12
2023-04-20T21:23:26.108Z,21.38
2023-04-20T21:25:54.029Z,21.20
2023-04-20T21:28:22.433Z,21.15
2023-04-20T21:30:50.560Z,21.26
2023-04-20T21:33:20.534Z,21.39
2023-04-20T21:35:55.487Z,21.39
2023-04-20T21:38:30.551Z,21.41
2023-04-20T21:41:00.134Z,21.03
2023-04-20T21:43:34.831Z,21.37
2023-04-20T21:46:04.103Z,21.19
2023-04-20T21:48:32.398Z,21.33
2023-04-20T21:51:02.287Z,21.21
2023-04-20T21:53:33.384Z,21.24
2023-04-20T21:56:01.024Z,20.95
2023-04-20T21:58:29.036Z,20.91
2023-04-20T22:00:56.917Z,20.96
2023-04-20T22:03:24.769Z,21.02
2023-04-20T22:05:53.240Z,21.31
2023-04-20T22:08:23.903Z,21.32
2023-04-20T22:10:52.206Z,21.29
2023-04-20T22:13:20.127Z,21.30
2023-04-20T22:15:48.581Z,21.29
2023-04-20T22:18:18.938Z,21.29
2023-04-20T22:20:47.195Z,21.19
2023-04-20T22:23:15.198Z,21.06
2023-04-20T22:25:43.236Z,21.26
2023-04-20T22:28:14.239Z,21.23
2023-04-20T22:30:43.010Z,21.21
2023-04-20T22:33:10.834Z,21.06
2023-04-20T22:35:39.138Z,21.20
2023-04-20T22:38:07.262Z,20.98
2023-04-20T22:40:35.185Z,21.03
2023-04-20T22:43:03.158Z,20.47
2023-04-20T22:45:31.146Z,20.83
2023-04-20T22:47:59.086Z,21.13
2023-04-20T22:50:27.156Z,20.99
2023-04-20T22:52:54.924Z,21.04
2023-04-20T22:55:23.037Z,21.08
2023-04-20T22:57:51.100Z,21.17
2023-04-20T23:00:19.214Z,20.80
2023-04-20T23:02:47.183Z,21.19
2023-04-20T23:05:20.482Z,20.99
2023-04-20T23:07:48.562Z,21.16
2023-04-20T23:10:16.641Z,21.16
2023-04-20T23:12:47.148Z,21.02
2023-04-20T23:15:14.947Z,20.87
2023-04-20T23:17:42.760Z,20.91
2023-04-20T23:20:14.000Z,20.83
2023-04-20T23:22:41.960Z,20.85
2023-04-20T23:25:11.073Z,20.84
2023-04-20T23:27:39.444Z,20.74
2023-04-20T23:30:08.783Z,21.07
2023-04-20T23:32:37.499Z,21.05
2023-04-20T23:35:05.603Z,21.13
2023-04-20T23:37:33.490Z,20.92
2023-04-20T23:40:01.264Z,21.13
2023-04-20T23:42:29.162Z,21.06
2023-04-20T23:44:56.967Z,21.15
2023-04-20T23:47:24.724Z,20.94
2023-04-20T23:49:52.661Z,20.99
2023-04-20T23:52:20.368Z,21.07
2023-04-20T23:54:48.068Z,20.88
2023-04-20T23:57:16.042Z,21.09
2023-04-20T23:59:43.733Z,21.19
